Карточка аэропорта USRR

Внимание!
Информация на этой странице в стадии наполнения.
Если вы не увидели какой-то информации, или заметили неточность - пожалуйста сообщите нам!
Спасибо!
Команда RU-STAFF
Название аэропортаСургут
Название аэропорта (англ.)Surgut
Превышение196 ft. (59.7 m.)
Координаты61°20.502', 73°24.168'
Высота перехода700m
Эшелон переходаQFE>=742mm:FL040; QFE<=742mm:FL050
Коды ответчика5570-5577
Зона ОрВДТюмень РПИ (USTV)
Данные METARUSRR 041030Z 08002MPS 9999 FEW009 M10/M12 Q1011 R07/35//50 NOSIG RMK OBST OBSC QFE753
Проноз погоды (TAF)USRR 040856Z 0409/0509 25003G08MPS 6000 SCT008 BKN016 TEMPO 0409/0412 12005G12MPS 1200 SHSN BKN004 BKN016CB FM041200 12003G12MPS 1200 SHSN SCT010 BKN016CB TEMPO 0412/0503 0500 +SHSN BKN004 BKN016CB BECMG 0500/0501 30003G10MPS BECMG 0503/0504 6000 -SHSN BKN016CB
NOTAMshow/hide NOTAM
AWOS   TABLE

Информация о ВПП

ВПП Длина ВПП (м.) Покрытие Курс ВПП Частота ILS
072780Асфальтобетон73110.5
252780Асфальтобетон253109.1

Диспетчерские позиции

Позывной Наименование органа УВД Частота
USRR_TWRСургут-Вышка120.800
USRR_R_APPСургут - Круг120.300
USRR_APPСургут-Подход129.300



Спутниковое изображение